createdAt,value
2019-05-29T00:01:23.406Z,7.87
2019-05-29T00:03:28.253Z,8.70
2019-05-29T00:05:32.979Z,6.43
2019-05-29T00:07:37.847Z,6.20
2019-05-29T00:09:42.585Z,6.47
2019-05-29T00:11:47.077Z,7.27
2019-05-29T00:13:51.318Z,5.90
2019-05-29T00:15:55.758Z,5.87
2019-05-29T00:18:00.480Z,6.17
2019-05-29T00:20:06.290Z,5.80
2019-05-29T00:22:14.474Z,5.93
2019-05-29T00:24:25.244Z,8.80
2019-05-29T00:26:29.531Z,6.30
2019-05-29T00:28:36.119Z,6.17
2019-05-29T00:30:42.006Z,6.50
2019-05-29T00:32:49.270Z,5.57
2019-05-29T00:34:55.143Z,5.77
2019-05-29T00:37:03.071Z,5.47
2019-05-29T00:39:14.819Z,5.60
2019-05-29T00:41:24.590Z,6.57
2019-05-29T00:43:36.893Z,5.77
2019-05-29T00:45:44.996Z,5.93
2019-05-29T00:47:53.519Z,5.27
2019-05-29T00:49:59.203Z,5.17
2019-05-29T00:52:05.001Z,5.73
2019-05-29T00:54:25.975Z,6.13
2019-05-29T00:56:32.856Z,5.47
2019-05-29T00:58:41.572Z,5.90
2019-05-29T01:00:49.871Z,4.80
2019-05-29T01:02:59.339Z,5.53
2019-05-29T01:05:09.846Z,5.57
2019-05-29T01:07:29.864Z,5.83
2019-05-29T01:09:40.963Z,6.00
2019-05-29T01:11:50.958Z,5.87
2019-05-29T01:14:00.845Z,7.20
2019-05-29T01:16:08.916Z,6.70
2019-05-29T01:18:30.626Z,5.77
2019-05-29T01:20:38.370Z,5.73
2019-05-29T01:22:43.427Z,6.87
2019-05-29T01:24:49.866Z,6.03
2019-05-29T01:26:57.160Z,9.50
2019-05-29T01:29:05.623Z,5.63
2019-05-29T01:31:17.756Z,6.60
2019-05-29T01:33:27.815Z,6.83
2019-05-29T01:35:33.354Z,5.30
2019-05-29T01:37:44.476Z,6.53
2019-05-29T01:39:50.301Z,6.93
2019-05-29T01:41:55.511Z,6.50
2019-05-29T01:44:03.381Z,5.70
2019-05-29T01:46:11.455Z,6.90
2019-05-29T01:48:26.088Z,5.93
2019-05-29T01:50:30.640Z,5.87
2019-05-29T01:52:34.985Z,5.70
2019-05-29T01:54:39.471Z,6.33
2019-05-29T01:56:46.579Z,6.87
2019-05-29T01:58:54.062Z,6.20
2019-05-29T02:01:01.408Z,6.07
2019-05-29T02:03:10.843Z,7.40
2019-05-29T02:05:24.316Z,6.23
2019-05-29T02:07:28.301Z,6.40
2019-05-29T02:09:32.786Z,6.60
2019-05-29T02:11:37.497Z,6.07
2019-05-29T02:13:41.674Z,5.90
2019-05-29T02:15:46.098Z,7.17
2019-05-29T02:17:50.418Z,5.97
2019-05-29T02:19:54.982Z,6.13
2019-05-29T02:21:59.279Z,5.77
2019-05-29T02:24:04.030Z,6.83
2019-05-29T02:26:12.970Z,5.93
2019-05-29T02:28:20.499Z,5.80
2019-05-29T02:30:28.034Z,6.10
2019-05-29T02:32:31.497Z,6.03
2019-05-29T02:34:36.724Z,6.80
2019-05-29T02:36:41.171Z,5.43
2019-05-29T02:38:45.728Z,6.57
2019-05-29T02:40:49.933Z,5.90
2019-05-29T02:42:54.443Z,7.20
2019-05-29T02:44:59.219Z,6.40
2019-05-29T02:47:04.176Z,5.93
2019-05-29T02:49:13.157Z,6.50
2019-05-29T02:51:26.465Z,6.77
2019-05-29T02:53:31.667Z,5.30
2019-05-29T02:55:36.301Z,6.87
2019-05-29T02:57:40.674Z,6.87
2019-05-29T02:59:45.211Z,6.03
2019-05-29T03:01:50.142Z,5.97
2019-05-29T03:03:54.595Z,5.40
2019-05-29T03:05:58.744Z,4.43
2019-05-29T03:08:03.374Z,4.40
2019-05-29T03:10:12.077Z,5.13
2019-05-29T03:12:26.958Z,4.43
2019-05-29T03:14:32.316Z,4.77
2019-05-29T03:16:37.648Z,7.13
2019-05-29T03:18:41.749Z,4.43
2019-05-29T03:20:46.012Z,4.20
2019-05-29T03:22:50.406Z,3.93
2019-05-29T03:24:54.968Z,4.30
2019-05-29T03:26:59.582Z,4.47
2019-05-29T03:29:04.429Z,3.80
2019-05-29T03:31:12.657Z,4.30
2019-05-29T03:33:28.607Z,3.80
2019-05-29T03:35:42.061Z,3.73
2019-05-29T03:37:39.054Z,8.77
2019-05-29T03:39:43.482Z,3.17
2019-05-29T03:41:47.739Z,3.93
2019-05-29T03:43:52.671Z,3.63
2019-05-29T03:45:57.125Z,3.20
2019-05-29T03:48:01.485Z,3.90
2019-05-29T03:50:09.209Z,3.27
2019-05-29T03:52:17.451Z,3.47
2019-05-29T03:54:29.123Z,7.00
2019-05-29T03:56:34.979Z,2.97
2019-05-29T03:58:39.295Z,3.43
2019-05-29T04:00:46.374Z,3.83
2019-05-29T04:02:50.241Z,4.73
2019-05-29T04:04:55.089Z,5.73
2019-05-29T04:07:00.618Z,3.90
2019-05-29T04:09:07.925Z,4.63
2019-05-29T04:11:15.541Z,4.10
2019-05-29T04:13:22.424Z,4.80
2019-05-29T04:15:27.556Z,8.43
2019-05-29T04:17:33.717Z,3.27
2019-05-29T04:19:38.605Z,4.50
2019-05-29T04:21:43.461Z,4.80
2019-05-29T04:23:48.290Z,3.63
2019-05-29T04:25:53.431Z,3.57
2019-05-29T04:27:58.273Z,4.17
2019-05-29T04:30:03.267Z,4.23
2019-05-29T04:32:11.578Z,4.07
2019-05-29T04:34:18.474Z,5.30
2019-05-29T04:36:26.045Z,4.10
2019-05-29T04:38:31.593Z,5.37
2019-05-29T04:40:37.888Z,4.47
2019-05-29T04:42:42.906Z,3.93
2019-05-29T04:44:47.461Z,4.13
2019-05-29T04:47:09.442Z,4.43
2019-05-29T04:48:58.440Z,3.97
2019-05-29T04:51:03.830Z,3.50
2019-05-29T04:53:11.728Z,3.80
2019-05-29T04:55:18.632Z,4.10
2019-05-29T04:57:26.643Z,4.50
2019-05-29T04:59:35.017Z,3.93
2019-05-29T05:01:39.386Z,4.17
2019-05-29T05:03:44.515Z,4.47
2019-05-29T05:05:51.735Z,4.10
2019-05-29T05:07:59.453Z,3.47
2019-05-29T05:10:09.458Z,3.70
2019-05-29T05:12:16.074Z,4.40
2019-05-29T05:14:24.798Z,4.43
2019-05-29T05:16:29.705Z,4.10
2019-05-29T05:18:34.406Z,4.13
2019-05-29T05:20:38.663Z,3.53
2019-05-29T05:22:43.674Z,3.33
2019-05-29T05:24:48.328Z,4.50
2019-05-29T05:26:52.807Z,3.40
2019-05-29T05:28:57.661Z,6.50
2019-05-29T05:31:02.002Z,3.50
2019-05-29T05:33:09.501Z,4.57
2019-05-29T05:35:20.928Z,8.10
2019-05-29T05:37:26.655Z,116.93
2019-05-29T05:39:32.779Z,140.10
2019-05-29T05:41:37.352Z,217.23
2019-05-29T05:43:42.077Z,423.03
2019-05-29T05:45:49.252Z,227.60
2019-05-29T05:47:57.712Z,191.20
2019-05-29T05:49:59.890Z,152.20
2019-05-29T05:52:06.603Z,135.10
2019-05-29T05:54:15.047Z,125.83
2019-05-29T05:56:23.422Z,463.17
2019-05-29T05:58:32.033Z,479.90
2019-05-29T06:00:37.970Z,465.23
2019-05-29T06:02:46.075Z,427.20
2019-05-29T06:04:50.491Z,387.40
2019-05-29T06:07:08.697Z,572.17
2019-05-29T06:09:15.147Z,382.87
2019-05-29T06:11:27.499Z,268.13
2019-05-29T06:15:48.799Z,1486.47
2019-05-29T06:18:17.077Z,1875.67
2019-05-29T06:22:07.436Z,559.83
2019-05-29T06:25:49.510Z,413.17
2019-05-29T06:26:28.878Z,1208.40
2019-05-29T06:28:35.113Z,911.70
2019-05-29T06:32:57.942Z,681.93
2019-05-29T06:35:25.102Z,889.93
2019-05-29T06:37:12.804Z,1278.17
2019-05-29T06:39:41.757Z,629.83
2019-05-29T06:41:49.006Z,1089.70
2019-05-29T06:43:55.013Z,828.97
2019-05-29T06:46:01.680Z,623.40
2019-05-29T06:48:09.762Z,520.67
2019-05-29T06:50:23.763Z,611.20
2019-05-29T06:52:29.468Z,341.10
2019-05-29T06:54:35.771Z,189.53
2019-05-29T06:56:41.701Z,112.30
2019-05-29T06:58:46.561Z,344.63
2019-05-29T07:00:51.928Z,763.67
2019-05-29T07:02:59.016Z,241.43
2019-05-29T07:05:03.679Z,66.47
2019-05-29T07:07:13.210Z,50.67
2019-05-29T07:09:25.193Z,201.00
2019-05-29T07:11:30.965Z,34.93
2019-05-29T07:13:37.733Z,20.50
2019-05-29T07:15:42.915Z,597.83
2019-05-29T07:17:47.278Z,80.27
2019-05-29T07:20:02.954Z,17.20
2019-05-29T07:21:57.308Z,271.83
2019-05-29T07:24:01.785Z,559.27
2019-05-29T07:26:11.447Z,573.03
2019-05-29T07:28:18.608Z,152.63
2019-05-29T07:30:23.809Z,42.00
2019-05-29T07:32:28.312Z,194.93
2019-05-29T07:34:52.670Z,170.40
2019-05-29T07:36:46.097Z,90.40
2019-05-29T07:38:57.547Z,278.77
2019-05-29T07:40:56.480Z,52.43
2019-05-29T07:43:01.063Z,457.23
2019-05-29T07:45:08.037Z,201.77
2019-05-29T07:47:20.381Z,124.87
2019-05-29T07:49:39.183Z,65.43
2019-05-29T07:51:38.127Z,117.10
2019-05-29T07:53:42.814Z,493.03
2019-05-29T07:55:47.046Z,900.00
2019-05-29T07:57:51.214Z,513.23
2019-05-29T07:59:55.827Z,1043.70
2019-05-29T08:02:00.614Z,774.27
2019-05-29T08:04:08.852Z,556.57
2019-05-29T08:06:16.855Z,276.37
2019-05-29T08:08:25.283Z,74.60
2019-05-29T08:10:29.693Z,118.60
2019-05-29T08:12:34.214Z,355.03
2019-05-29T08:14:39.700Z,454.27
2019-05-29T08:16:47.971Z,496.73
2019-05-29T08:18:55.655Z,279.33
2019-05-29T08:21:02.654Z,231.23
2019-05-29T08:23:12.537Z,209.00
2019-05-29T08:25:21.785Z,427.87
2019-05-29T08:27:29.101Z,335.97
2019-05-29T08:29:36.586Z,172.23
2019-05-29T08:31:42.654Z,417.83
2019-05-29T08:33:49.019Z,175.73
2019-05-29T08:35:59.909Z,194.20
2019-05-29T08:38:10.148Z,399.90
2019-05-29T08:40:27.431Z,508.43
2019-05-29T08:42:32.781Z,272.33
2019-05-29T08:44:41.450Z,99.23
2019-05-29T08:47:02.807Z,180.83
2019-05-29T08:48:52.523Z,286.57
2019-05-29T08:50:58.333Z,706.90
2019-05-29T08:53:03.332Z,168.97
2019-05-29T08:55:13.882Z,949.30
2019-05-29T08:57:26.125Z,166.43
2019-05-29T08:59:38.979Z,83.23
2019-05-29T09:01:45.092Z,434.73
2019-05-29T09:03:53.307Z,77.73
2019-05-29T09:06:08.504Z,640.77
2019-05-29T09:08:09.050Z,507.57
2019-05-29T09:10:24.796Z,228.97
2019-05-29T09:12:32.582Z,257.80
2019-05-29T09:14:37.628Z,106.97
2019-05-29T09:16:45.769Z,135.37
2019-05-29T09:18:51.921Z,666.20
2019-05-29T09:21:03.361Z,486.53
2019-05-29T09:23:07.351Z,513.70
2019-05-29T09:25:18.964Z,710.73
2019-05-29T09:27:28.353Z,178.23
2019-05-29T09:29:33.002Z,79.53
2019-05-29T09:31:43.551Z,28.27
2019-05-29T09:33:49.284Z,15.07
2019-05-29T09:35:55.253Z,13.00
2019-05-29T09:38:03.279Z,108.93
2019-05-29T09:40:32.805Z,1837.30
2019-05-29T09:42:43.486Z,1451.33
2019-05-29T09:44:49.703Z,1044.93
2019-05-29T09:46:59.435Z,1155.93
2019-05-29T09:49:07.997Z,776.80
2019-05-29T09:53:28.343Z,631.77
2019-05-29T09:53:44.988Z,1025.27
2019-05-29T09:55:34.685Z,784.20
2019-05-29T09:57:42.186Z,885.10
2019-05-29T09:59:46.841Z,617.60
2019-05-29T10:01:54.714Z,622.33
2019-05-29T10:04:01.889Z,296.57
2019-05-29T10:06:11.322Z,413.30
2019-05-29T10:08:22.548Z,863.77
2019-05-29T10:10:31.478Z,258.37
2019-05-29T10:12:36.177Z,106.17
2019-05-29T10:14:41.583Z,165.73
2019-05-29T10:16:46.799Z,659.73
2019-05-29T10:18:51.916Z,440.07
2019-05-29T10:21:01.393Z,106.50
2019-05-29T10:23:08.837Z,26.70
2019-05-29T10:25:15.687Z,139.20
2019-05-29T10:27:31.137Z,426.57
2019-05-29T10:29:37.422Z,484.13
2019-05-29T10:31:42.376Z,471.40
2019-05-29T10:33:48.340Z,286.17
2019-05-29T10:35:55.416Z,237.37
2019-05-29T10:38:00.782Z,198.70
2019-05-29T10:40:10.062Z,148.17
2019-05-29T10:42:27.791Z,157.53
2019-05-29T10:44:32.304Z,159.13
2019-05-29T10:46:38.399Z,355.77
2019-05-29T10:48:48.669Z,643.40
2019-05-29T10:50:53.746Z,480.30
2019-05-29T10:52:58.688Z,239.77
2019-05-29T10:55:08.089Z,171.27
2019-05-29T10:57:23.078Z,723.60
2019-05-29T10:59:32.833Z,457.30
2019-05-29T11:01:49.193Z,172.03
2019-05-29T11:03:55.892Z,85.20
2019-05-29T11:06:01.860Z,52.10
2019-05-29T11:08:08.494Z,712.17
2019-05-29T11:10:21.387Z,400.60
2019-05-29T11:12:28.657Z,170.73
2019-05-29T11:14:35.726Z,114.30
2019-05-29T11:16:44.128Z,599.47
2019-05-29T11:18:51.109Z,926.30
2019-05-29T11:20:57.571Z,1371.67
2019-05-29T11:23:04.919Z,954.63
2019-05-29T11:25:27.752Z,563.53
2019-05-29T11:27:34.558Z,364.07
2019-05-29T11:29:43.163Z,133.50
2019-05-29T11:31:50.644Z,50.97
2019-05-29T11:33:57.189Z,18.37
2019-05-29T11:36:12.272Z,205.83
2019-05-29T11:38:12.266Z,496.53
2019-05-29T11:40:24.649Z,291.37
2019-05-29T11:42:29.755Z,595.63
2019-05-29T11:44:34.583Z,425.33
2019-05-29T11:46:39.442Z,466.23
2019-05-29T11:48:47.428Z,338.33
2019-05-29T11:50:58.227Z,202.83
2019-05-29T11:53:03.942Z,198.70
2019-05-29T11:55:21.769Z,146.90
2019-05-29T11:57:29.847Z,121.07
2019-05-29T11:59:36.345Z,118.57
2019-05-29T12:01:50.070Z,107.50
2019-05-29T12:04:13.370Z,79.80
2019-05-29T12:05:59.428Z,95.87
2019-05-29T12:08:08.390Z,83.03
2019-05-29T12:10:18.040Z,66.87
2019-05-29T12:12:25.413Z,124.27
2019-05-29T12:14:59.138Z,508.53
2019-05-29T12:16:49.022Z,162.43
2019-05-29T12:18:55.644Z,107.13
2019-05-29T12:21:01.625Z,60.40
2019-05-29T12:23:25.079Z,41.30
2019-05-29T12:25:21.475Z,41.77
2019-05-29T12:27:31.854Z,42.33
2019-05-29T12:29:39.063Z,36.43
2019-05-29T12:36:17.133Z,30.87
2019-05-29T13:16:00.897Z,1482.07
2019-05-29T13:18:12.678Z,600.40
2019-05-29T13:24:52.701Z,265.53
2019-05-29T13:26:57.428Z,113.00
2019-05-29T13:29:01.970Z,25.80
2019-05-29T13:31:08.770Z,8.60
2019-05-29T13:33:15.881Z,7.37
2019-05-29T13:35:26.095Z,6.40
2019-05-29T13:37:30.426Z,5.03
2019-05-29T13:39:35.082Z,5.50
2019-05-29T13:41:39.376Z,4.47
2019-05-29T13:43:44.129Z,6.33
2019-05-29T13:45:48.640Z,3.90
2019-05-29T13:47:53.277Z,3.37
2019-05-29T13:49:58.893Z,4.30
2019-05-29T13:52:12.526Z,93.33
2019-05-29T13:54:21.347Z,660.13
2019-05-29T13:56:26.927Z,454.53
2019-05-29T13:58:33.749Z,216.97
2019-05-29T14:00:38.135Z,139.57
2019-05-29T14:02:44.712Z,32.97
2019-05-29T14:04:49.069Z,14.57
2019-05-29T14:06:53.887Z,4.57
2019-05-29T14:08:59.023Z,224.13
2019-05-29T14:11:03.568Z,40.30
2019-05-29T14:13:12.466Z,704.77
2019-05-29T14:15:23.033Z,526.40
2019-05-29T14:17:27.189Z,676.90
2019-05-29T14:19:31.906Z,509.77
2019-05-29T14:21:36.760Z,331.27
2019-05-29T14:23:42.499Z,272.97
2019-05-29T14:25:47.048Z,1175.17
2019-05-29T14:28:02.507Z,181.57
2019-05-29T14:30:20.995Z,481.43
2019-05-29T14:32:22.568Z,149.77
2019-05-29T14:34:28.643Z,37.57
2019-05-29T14:36:34.597Z,27.53
2019-05-29T14:38:38.840Z,142.57
2019-05-29T14:40:43.424Z,7.77
2019-05-29T14:42:48.640Z,273.93
2019-05-29T14:44:52.973Z,13.60
2019-05-29T14:47:00.164Z,108.93
2019-05-29T14:49:06.535Z,9.90
2019-05-29T14:51:14.646Z,10.80
2019-05-29T14:53:29.746Z,8.20
2019-05-29T14:55:35.188Z,271.17
2019-05-29T14:57:40.407Z,82.43
2019-05-29T14:59:45.418Z,140.97
2019-05-29T15:01:51.348Z,101.53
2019-05-29T15:03:55.980Z,41.07
2019-05-29T15:06:00.552Z,6.77
2019-05-29T15:08:08.068Z,42.80
2019-05-29T15:10:26.815Z,6.67
2019-05-29T15:12:28.021Z,7.97
2019-05-29T15:14:33.207Z,5.77
2019-05-29T15:16:37.711Z,2.20
2019-05-29T15:18:42.348Z,2.30
2019-05-29T15:20:47.306Z,2.63
2019-05-29T15:22:51.629Z,129.33
2019-05-29T15:25:07.980Z,860.33
2019-05-29T15:27:03.523Z,767.97
2019-05-29T15:29:14.276Z,656.63
2019-05-29T15:31:25.155Z,114.47
2019-05-29T15:33:29.337Z,18.90
2019-05-29T15:35:33.620Z,31.00
2019-05-29T15:37:39.010Z,10.17
2019-05-29T15:39:44.021Z,6.70
2019-05-29T15:41:49.196Z,9.53
2019-05-29T15:43:53.707Z,3.20
2019-05-29T15:45:58.914Z,3.70
2019-05-29T15:48:04.388Z,5.70
2019-05-29T15:50:13.419Z,5.73
2019-05-29T15:52:24.263Z,4.73
2019-05-29T15:54:28.730Z,3.53
2019-05-29T15:56:33.701Z,4.33
2019-05-29T15:58:38.273Z,3.47
2019-05-29T16:00:43.097Z,5.10
2019-05-29T16:02:49.609Z,3.53
2019-05-29T16:04:54.882Z,5.23
2019-05-29T16:06:59.300Z,4.37
2019-05-29T16:09:10.202Z,1.93
2019-05-29T16:11:26.449Z,4.33
2019-05-29T16:13:37.544Z,3.10
2019-05-29T16:15:42.638Z,1.83
2019-05-29T16:17:46.868Z,2.87
2019-05-29T16:19:53.897Z,1.60
2019-05-29T16:22:03.678Z,1.63
2019-05-29T16:24:11.081Z,1.50
2019-05-29T16:26:18.254Z,1.57
2019-05-29T16:28:26.413Z,1.50
2019-05-29T16:30:30.657Z,6.00
2019-05-29T16:32:35.089Z,2.10
2019-05-29T16:34:39.816Z,2.10
2019-05-29T16:36:44.685Z,1.50
2019-05-29T16:38:49.383Z,2.63
2019-05-29T16:40:53.978Z,2.70
2019-05-29T16:42:58.333Z,1.63
2019-05-29T16:45:03.752Z,1.47
2019-05-29T16:47:12.539Z,1.50
2019-05-29T16:49:23.367Z,1.50
2019-05-29T16:51:27.809Z,1.50
2019-05-29T16:53:33.586Z,1.30
2019-05-29T16:55:52.762Z,3.33
2019-05-29T16:57:43.850Z,4.97
2019-05-29T16:59:49.415Z,1.67
2019-05-29T17:01:59.440Z,1.27
2019-05-29T17:04:03.880Z,2.73
2019-05-29T17:06:15.787Z,1.83
2019-05-29T17:08:24.646Z,1.30
2019-05-29T17:10:37.350Z,3.20
2019-05-29T17:12:41.942Z,1.87
2019-05-29T17:14:49.983Z,1.60
2019-05-29T17:17:03.060Z,1.13
2019-05-29T17:19:11.979Z,2.17
2019-05-29T17:21:24.940Z,1.40
2019-05-29T17:23:29.271Z,1.77
2019-05-29T17:25:35.429Z,1.30
2019-05-29T17:27:41.291Z,3.93
2019-05-29T17:29:48.565Z,1.83
2019-05-29T17:31:58.921Z,3.13
2019-05-29T17:34:04.120Z,1.43
2019-05-29T17:36:13.177Z,3.53
2019-05-29T17:38:19.131Z,4.23
2019-05-29T17:40:29.582Z,1.80
2019-05-29T17:42:33.880Z,1.03
2019-05-29T17:44:38.931Z,1.57
2019-05-29T17:46:43.294Z,5.00
2019-05-29T17:48:47.516Z,1.33
2019-05-29T17:50:55.089Z,1.53
2019-05-29T17:52:59.560Z,1.30
2019-05-29T17:55:04.444Z,5.47
2019-05-29T17:57:12.966Z,1.73
2019-05-29T17:59:24.085Z,9.83
2019-05-29T18:01:31.494Z,4.53
2019-05-29T18:03:35.649Z,3.17
2019-05-29T18:05:40.288Z,2.07
2019-05-29T18:07:44.561Z,1.50
2019-05-29T18:09:49.556Z,2.67
2019-05-29T18:11:53.760Z,1.43
2019-05-29T18:13:58.005Z,3.40
2019-05-29T18:16:04.171Z,1.50
2019-05-29T18:18:12.901Z,2.70
2019-05-29T18:20:25.854Z,1.83
2019-05-29T18:22:30.336Z,1.40
2019-05-29T18:24:34.638Z,1.13
2019-05-29T18:26:46.770Z,1.47
2019-05-29T18:28:44.911Z,1.70
2019-05-29T18:30:49.639Z,1.53
2019-05-29T18:32:53.866Z,1.43
2019-05-29T18:34:58.825Z,1.40
2019-05-29T18:37:03.265Z,2.23
2019-05-29T18:39:12.028Z,1.57
2019-05-29T18:41:24.451Z,2.23
2019-05-29T18:43:31.245Z,1.57
2019-05-29T18:45:35.757Z,1.47
2019-05-29T18:47:40.605Z,2.80
2019-05-29T18:49:44.956Z,1.40
2019-05-29T18:51:49.391Z,1.37
2019-05-29T18:53:54.265Z,2.17
2019-05-29T18:55:58.581Z,2.30
2019-05-29T18:58:02.945Z,4.13
2019-05-29T19:00:07.411Z,3.23
2019-05-29T19:02:15.071Z,1.00
2019-05-29T19:04:23.426Z,1.23
2019-05-29T19:06:28.112Z,1.50
2019-05-29T19:08:32.540Z,1.93
2019-05-29T19:10:36.890Z,1.63
2019-05-29T19:12:41.445Z,2.43
2019-05-29T19:14:45.755Z,2.57
2019-05-29T19:16:50.129Z,2.40
2019-05-29T19:18:54.899Z,1.80
2019-05-29T19:20:59.210Z,2.10
2019-05-29T19:23:04.107Z,1.70
2019-05-29T19:25:12.401Z,1.60
2019-05-29T19:27:36.905Z,2.00
2019-05-29T19:29:29.246Z,2.40
2019-05-29T19:31:33.984Z,2.20
2019-05-29T19:33:38.257Z,3.90
2019-05-29T19:35:43.739Z,3.07
2019-05-29T19:37:49.852Z,2.80
2019-05-29T19:39:54.148Z,2.40
2019-05-29T19:41:58.543Z,18.17
2019-05-29T19:44:04.206Z,3.20
2019-05-29T19:46:12.396Z,2.97
2019-05-29T19:48:19.575Z,3.63
2019-05-29T19:50:27.275Z,4.00
2019-05-29T19:52:31.863Z,3.37
2019-05-29T19:54:36.195Z,3.60
2019-05-29T19:56:40.835Z,2.70
2019-05-29T19:58:45.274Z,3.50
2019-05-29T20:00:49.603Z,3.33
2019-05-29T20:02:54.300Z,3.87
2019-05-29T20:04:58.658Z,2.67
2019-05-29T20:07:03.991Z,3.87
2019-05-29T20:09:17.045Z,4.20
2019-05-29T20:11:27.669Z,2.93
2019-05-29T20:13:33.693Z,3.17
2019-05-29T20:15:38.610Z,3.30
2019-05-29T20:17:43.281Z,5.70
2019-05-29T20:19:49.005Z,3.50
2019-05-29T20:21:53.519Z,3.23
2019-05-29T20:23:57.755Z,3.07
2019-05-29T20:26:02.028Z,3.47
2019-05-29T20:28:09.609Z,2.83
2019-05-29T20:30:17.472Z,3.17
2019-05-29T20:32:25.656Z,3.10
2019-05-29T20:34:31.184Z,4.63
2019-05-29T20:36:37.282Z,3.30
2019-05-29T20:38:41.393Z,3.07
2019-05-29T20:40:46.104Z,3.80
2019-05-29T20:42:50.449Z,6.90
2019-05-29T20:44:55.062Z,3.97
2019-05-29T20:47:01.629Z,4.10
2019-05-29T20:49:08.494Z,3.93
2019-05-29T20:51:19.639Z,5.23
2019-05-29T20:53:27.200Z,3.40
2019-05-29T20:55:31.865Z,3.10
2019-05-29T20:57:36.362Z,6.57
2019-05-29T20:59:42.198Z,3.27
2019-05-29T21:01:47.633Z,3.10
2019-05-29T21:03:52.417Z,3.23
2019-05-29T21:06:20.310Z,3.00
2019-05-29T21:08:26.682Z,2.50
2019-05-29T21:10:31.199Z,3.00
2019-05-29T21:12:37.383Z,3.13
2019-05-29T21:14:42.064Z,2.80
2019-05-29T21:16:46.292Z,3.80
2019-05-29T21:18:51.105Z,3.30
2019-05-29T21:20:55.464Z,3.70
2019-05-29T21:22:59.904Z,6.07
2019-05-29T21:25:12.660Z,3.03
2019-05-29T21:27:20.177Z,3.07
2019-05-29T21:29:26.168Z,3.57
2019-05-29T21:31:30.835Z,3.27
2019-05-29T21:33:38.080Z,3.27
2019-05-29T21:35:44.273Z,3.00
2019-05-29T21:37:48.797Z,3.10
2019-05-29T21:39:54.841Z,3.13
2019-05-29T21:41:59.561Z,3.13
2019-05-29T21:44:07.297Z,3.87
2019-05-29T21:46:15.193Z,3.93
2019-05-29T21:48:27.266Z,11.53
2019-05-29T21:50:31.795Z,220.13
2019-05-29T21:52:37.489Z,539.10
2019-05-29T21:54:43.567Z,464.13
2019-05-29T21:56:48.231Z,397.17
2019-05-29T21:59:02.886Z,641.97
2019-05-29T22:00:59.881Z,673.03
2019-05-29T22:03:07.785Z,663.73
2019-05-29T22:05:23.059Z,813.03
2019-05-29T22:07:28.096Z,707.93
2019-05-29T22:09:32.711Z,731.23
2019-05-29T22:11:37.483Z,1049.07
2019-05-29T22:13:42.258Z,851.97
2019-05-29T22:15:46.596Z,1114.07
2019-05-29T22:17:50.949Z,727.00
2019-05-29T22:19:56.916Z,491.27
2019-05-29T22:22:01.415Z,289.17
2019-05-29T22:24:07.280Z,129.50
2019-05-29T22:26:16.048Z,352.60
2019-05-29T22:28:27.747Z,538.23
2019-05-29T22:30:32.746Z,683.73
2019-05-29T22:32:37.703Z,451.63
2019-05-29T22:34:42.861Z,365.20
2019-05-29T22:36:47.326Z,419.33
2019-05-29T22:38:51.977Z,90.60
2019-05-29T22:40:57.741Z,28.07
2019-05-29T22:43:02.295Z,7.60
2019-05-29T22:45:09.201Z,3.97
2019-05-29T22:47:15.676Z,3.30
2019-05-29T22:49:22.611Z,3.10
2019-05-29T22:51:27.534Z,3.27
2019-05-29T22:53:32.423Z,2.83
2019-05-29T22:55:37.671Z,3.50
2019-05-29T22:57:42.819Z,3.13
2019-05-29T22:59:47.163Z,2.83
2019-05-29T23:01:52.044Z,3.27
2019-05-29T23:03:58.230Z,3.17
2019-05-29T23:06:02.711Z,3.63
2019-05-29T23:08:10.281Z,2.73
2019-05-29T23:10:21.929Z,2.63
2019-05-29T23:12:26.816Z,3.10
2019-05-29T23:14:31.465Z,2.77
2019-05-29T23:16:35.980Z,2.53
2019-05-29T23:18:41.566Z,3.03
2019-05-29T23:20:47.127Z,4.50
2019-05-29T23:22:56.523Z,2.40
2019-05-29T23:25:06.075Z,6.00
2019-05-29T23:27:20.944Z,2.23
2019-05-29T23:29:47.699Z,2.20
2019-05-29T23:31:41.061Z,2.53
2019-05-29T23:33:58.984Z,2.50
2019-05-29T23:36:04.340Z,2.73
2019-05-29T23:38:15.145Z,3.50
2019-05-29T23:40:25.961Z,2.30
2019-05-29T23:42:32.016Z,2.50
2019-05-29T23:44:37.356Z,2.50
2019-05-29T23:46:48.324Z,3.33
2019-05-29T23:48:57.560Z,2.47
2019-05-29T23:51:03.832Z,2.00
2019-05-29T23:53:12.657Z,2.40
2019-05-29T23:55:26.448Z,2.37
2019-05-29T23:57:41.851Z,5.07
